sensor_id;sensor_type;location;lat;lon;timestamp;pressure;altitude;pressure_sealevel;temperature;humidity
41706;BME280;27385;51.096;17.190;2023-03-20T00:00:20;100285.66;;;6.65;70.01
41706;BME280;27385;51.096;17.190;2023-03-20T00:03:13;100289.02;;;6.64;70.24
41706;BME280;27385;51.096;17.190;2023-03-20T00:05:44;100288.00;;;6.64;70.46
41706;BME280;27385;51.096;17.190;2023-03-20T00:08:15;100290.67;;;6.65;70.75
41706;BME280;27385;51.096;17.190;2023-03-20T00:10:47;100286.73;;;6.64;71.06
41706;BME280;27385;51.096;17.190;2023-03-20T00:13:23;100286.89;;;6.64;71.17
41706;BME280;27385;51.096;17.190;2023-03-20T00:15:56;100285.08;;;6.66;71.31
41706;BME280;27385;51.096;17.190;2023-03-20T00:18:28;100284.63;;;6.68;71.34
41706;BME280;27385;51.096;17.190;2023-03-20T00:20:59;100282.14;;;6.68;71.82
41706;BME280;27385;51.096;17.190;2023-03-20T00:23:30;100280.48;;;6.70;71.88
41706;BME280;27385;51.096;17.190;2023-03-20T00:26:01;100279.80;;;6.72;71.94
41706;BME280;27385;51.096;17.190;2023-03-20T00:28:37;100275.91;;;6.74;72.24
41706;BME280;27385;51.096;17.190;2023-03-20T00:31:17;100277.68;;;6.75;72.45
41706;BME280;27385;51.096;17.190;2023-03-20T00:33:48;100281.17;;;6.77;72.52
41706;BME280;27385;51.096;17.190;2023-03-20T00:36:20;100279.95;;;6.78;72.71
41706;BME280;27385;51.096;17.190;2023-03-20T00:38:51;100280.52;;;6.80;72.75
41706;BME280;27385;51.096;17.190;2023-03-20T00:41:27;100279.67;;;6.81;72.53
41706;BME280;27385;51.096;17.190;2023-03-20T00:44:01;100276.35;;;6.83;72.59
41706;BME280;27385;51.096;17.190;2023-03-20T00:46:36;100280.12;;;6.84;72.51
41706;BME280;27385;51.096;17.190;2023-03-20T00:49:11;100279.30;;;6.85;72.55
41706;BME280;27385;51.096;17.190;2023-03-20T00:51:42;100277.48;;;6.87;72.61
41706;BME280;27385;51.096;17.190;2023-03-20T00:54:15;100279.27;;;6.88;72.71
41706;BME280;27385;51.096;17.190;2023-03-20T00:56:51;100276.64;;;6.91;73.09
41706;BME280;27385;51.096;17.190;2023-03-20T00:59:27;100275.09;;;6.92;73.39
41706;BME280;27385;51.096;17.190;2023-03-20T01:02:02;100275.81;;;6.93;73.54
41706;BME280;27385;51.096;17.190;2023-03-20T01:04:37;100271.52;;;6.96;73.46
41706;BME280;27385;51.096;17.190;2023-03-20T01:07:13;100268.59;;;6.98;73.49
41706;BME280;27385;51.096;17.190;2023-03-20T01:09:44;100267.23;;;7.00;73.60
41706;BME280;27385;51.096;17.190;2023-03-20T01:12:16;100265.58;;;7.02;73.57
41706;BME280;27385;51.096;17.190;2023-03-20T01:14:52;100265.07;;;7.03;73.65
41706;BME280;27385;51.096;17.190;2023-03-20T01:17:26;100266.10;;;7.05;73.79
41706;BME280;27385;51.096;17.190;2023-03-20T01:19:58;100269.17;;;7.08;73.98
41706;BME280;27385;51.096;17.190;2023-03-20T01:22:29;100268.09;;;7.11;74.28
41706;BME280;27385;51.096;17.190;2023-03-20T01:25:00;100267.83;;;7.13;74.28
41706;BME280;27385;51.096;17.190;2023-03-20T01:27:32;100266.48;;;7.15;74.34
41706;BME280;27385;51.096;17.190;2023-03-20T01:30:05;100270.05;;;7.18;74.40
41706;BME280;27385;51.096;17.190;2023-03-20T01:32:36;100270.03;;;7.20;74.26
41706;BME280;27385;51.096;17.190;2023-03-20T01:35:10;100272.34;;;7.22;74.44
41706;BME280;27385;51.096;17.190;2023-03-20T01:37:41;100272.45;;;7.23;74.50
41706;BME280;27385;51.096;17.190;2023-03-20T01:40:23;100276.97;;;7.25;74.67
41706;BME280;27385;51.096;17.190;2023-03-20T01:42:57;100273.98;;;7.27;74.74
41706;BME280;27385;51.096;17.190;2023-03-20T01:45:31;100275.77;;;7.27;75.11
41706;BME280;27385;51.096;17.190;2023-03-20T01:48:14;100278.46;;;7.30;75.36
41706;BME280;27385;51.096;17.190;2023-03-20T01:50:46;100278.25;;;7.32;75.58
41706;BME280;27385;51.096;17.190;2023-03-20T01:53:19;100277.63;;;7.35;75.88
41706;BME280;27385;51.096;17.190;2023-03-20T01:55:54;100277.03;;;7.39;76.18
41706;BME280;27385;51.096;17.190;2023-03-20T01:58:29;100275.06;;;7.42;76.42
41706;BME280;27385;51.096;17.190;2023-03-20T02:01:06;100275.23;;;7.44;77.01
41706;BME280;27385;51.096;17.190;2023-03-20T02:03:40;100279.92;;;7.47;77.41
41706;BME280;27385;51.096;17.190;2023-03-20T02:06:13;100277.38;;;7.49;77.74
41706;BME280;27385;51.096;17.190;2023-03-20T02:08:46;100278.26;;;7.51;77.96
41706;BME280;27385;51.096;17.190;2023-03-20T02:11:20;100275.86;;;7.56;78.41
41706;BME280;27385;51.096;17.190;2023-03-20T02:13:54;100279.98;;;7.60;78.82
41706;BME280;27385;51.096;17.190;2023-03-20T02:16:26;100276.88;;;7.64;79.10
41706;BME280;27385;51.096;17.190;2023-03-20T02:18:58;100280.48;;;7.67;79.36
41706;BME280;27385;51.096;17.190;2023-03-20T02:21:55;100276.23;;;7.70;79.47
41706;BME280;27385;51.096;17.190;2023-03-20T02:24:54;100275.05;;;7.73;79.96
41706;BME280;27385;51.096;17.190;2023-03-20T02:27:40;100277.51;;;7.79;80.38
41706;BME280;27385;51.096;17.190;2023-03-20T02:33:45;100271.51;;;7.90;80.81
41706;BME280;27385;51.096;17.190;2023-03-20T02:42:23;100270.45;;;8.02;81.58
41706;BME280;27385;51.096;17.190;2023-03-20T02:45:05;100272.28;;;8.04;81.71
41706;BME280;27385;51.096;17.190;2023-03-20T02:47:50;100271.34;;;8.05;82.11
41706;BME280;27385;51.096;17.190;2023-03-20T02:50:28;100270.12;;;8.06;82.39
41706;BME280;27385;51.096;17.190;2023-03-20T02:53:11;100271.20;;;8.08;82.69
41706;BME280;27385;51.096;17.190;2023-03-20T02:55:51;100271.38;;;8.10;83.02
41706;BME280;27385;51.096;17.190;2023-03-20T02:58:27;100275.02;;;8.12;83.39
41706;BME280;27385;51.096;17.190;2023-03-20T03:01:02;100271.89;;;8.14;83.89
41706;BME280;27385;51.096;17.190;2023-03-20T03:03:42;100273.38;;;8.17;83.89
41706;BME280;27385;51.096;17.190;2023-03-20T03:06:19;100272.80;;;8.20;84.19
41706;BME280;27385;51.096;17.190;2023-03-20T03:08:54;100271.63;;;8.21;84.29
41706;BME280;27385;51.096;17.190;2023-03-20T03:11:28;100273.56;;;8.22;84.67
41706;BME280;27385;51.096;17.190;2023-03-20T03:14:01;100271.33;;;8.23;84.81
41706;BME280;27385;51.096;17.190;2023-03-20T03:16:36;100272.09;;;8.23;85.15
41706;BME280;27385;51.096;17.190;2023-03-20T03:19:09;100273.29;;;8.23;85.48
41706;BME280;27385;51.096;17.190;2023-03-20T03:21:43;100274.31;;;8.23;85.80
41706;BME280;27385;51.096;17.190;2023-03-20T03:24:26;100270.21;;;8.23;86.16
41706;BME280;27385;51.096;17.190;2023-03-20T03:26:59;100270.81;;;8.23;86.36
41706;BME280;27385;51.096;17.190;2023-03-20T03:29:35;100261.17;;;8.24;86.53
41706;BME280;27385;51.096;17.190;2023-03-20T03:32:18;100262.35;;;8.25;86.55
41706;BME280;27385;51.096;17.190;2023-03-20T03:34:50;100259.99;;;8.26;86.69
41706;BME280;27385;51.096;17.190;2023-03-20T03:37:27;100264.55;;;8.27;86.57
41706;BME280;27385;51.096;17.190;2023-03-20T03:40:07;100261.95;;;8.29;86.66
41706;BME280;27385;51.096;17.190;2023-03-20T03:42:47;100259.36;;;8.30;86.64
41706;BME280;27385;51.096;17.190;2023-03-20T03:45:25;100262.82;;;8.31;86.96
41706;BME280;27385;51.096;17.190;2023-03-20T03:48:03;100263.01;;;8.32;87.05
41706;BME280;27385;51.096;17.190;2023-03-20T03:50:39;100257.82;;;8.33;87.01
41706;BME280;27385;51.096;17.190;2023-03-20T03:53:16;100256.55;;;8.34;87.18
41706;BME280;27385;51.096;17.190;2023-03-20T03:55:51;100254.52;;;8.34;87.33
41706;BME280;27385;51.096;17.190;2023-03-20T03:58:27;100255.98;;;8.35;87.29
41706;BME280;27385;51.096;17.190;2023-03-20T04:01:01;100255.86;;;8.35;87.50
41706;BME280;27385;51.096;17.190;2023-03-20T04:03:36;100256.19;;;8.35;87.42
41706;BME280;27385;51.096;17.190;2023-03-20T04:06:10;100258.44;;;8.37;87.67
41706;BME280;27385;51.096;17.190;2023-03-20T04:08:42;100259.36;;;8.37;87.49
41706;BME280;27385;51.096;17.190;2023-03-20T04:11:16;100263.09;;;8.39;87.81
41706;BME280;27385;51.096;17.190;2023-03-20T04:13:48;100266.73;;;8.39;87.91
41706;BME280;27385;51.096;17.190;2023-03-20T04:16:21;100263.98;;;8.40;88.06
41706;BME280;27385;51.096;17.190;2023-03-20T04:18:53;100263.77;;;8.41;87.91
41706;BME280;27385;51.096;17.190;2023-03-20T04:21:25;100267.40;;;8.42;88.09
41706;BME280;27385;51.096;17.190;2023-03-20T04:23:56;100267.85;;;8.43;88.22
41706;BME280;27385;51.096;17.190;2023-03-20T04:26:27;100266.56;;;8.43;88.29
41706;BME280;27385;51.096;17.190;2023-03-20T04:28:58;100272.70;;;8.44;88.60
41706;BME280;27385;51.096;17.190;2023-03-20T04:31:30;100272.70;;;8.44;88.63
41706;BME280;27385;51.096;17.190;2023-03-20T04:34:01;100269.96;;;8.45;88.60
41706;BME280;27385;51.096;17.190;2023-03-20T04:36:32;100271.23;;;8.47;88.50
41706;BME280;27385;51.096;17.190;2023-03-20T04:39:03;100268.39;;;8.49;88.51
41706;BME280;27385;51.096;17.190;2023-03-20T04:41:34;100272.39;;;8.50;88.49
41706;BME280;27385;51.096;17.190;2023-03-20T04:44:05;100272.10;;;8.51;88.46
41706;BME280;27385;51.096;17.190;2023-03-20T04:46:38;100274.48;;;8.53;88.19
41706;BME280;27385;51.096;17.190;2023-03-20T04:49:09;100278.30;;;8.54;88.44
41706;BME280;27385;51.096;17.190;2023-03-20T04:51:40;100275.11;;;8.55;88.53
41706;BME280;27385;51.096;17.190;2023-03-20T04:54:10;100282.55;;;8.56;88.36
41706;BME280;27385;51.096;17.190;2023-03-20T04:56:41;100286.13;;;8.57;88.55
41706;BME280;27385;51.096;17.190;2023-03-20T04:59:12;100283.29;;;8.59;88.60
41706;BME280;27385;51.096;17.190;2023-03-20T05:01:44;100286.34;;;8.60;88.67
41706;BME280;27385;51.096;17.190;2023-03-20T05:04:15;100285.45;;;8.60;88.80
41706;BME280;27385;51.096;17.190;2023-03-20T05:06:45;100285.56;;;8.61;88.91
41706;BME280;27385;51.096;17.190;2023-03-20T05:09:18;100289.03;;;8.62;88.71
41706;BME280;27385;51.096;17.190;2023-03-20T05:11:49;100286.89;;;8.62;89.09
41706;BME280;27385;51.096;17.190;2023-03-20T05:14:21;100291.57;;;8.62;89.20
41706;BME280;27385;51.096;17.190;2023-03-20T05:16:52;100290.95;;;8.60;89.20
41706;BME280;27385;51.096;17.190;2023-03-20T05:19:23;100286.00;;;8.58;89.35
41706;BME280;27385;51.096;17.190;2023-03-20T05:21:54;100290.33;;;8.58;88.87
41706;BME280;27385;51.096;17.190;2023-03-20T05:24:25;100287.40;;;8.57;89.02
41706;BME280;27385;51.096;17.190;2023-03-20T05:26:57;100289.06;;;8.57;89.12
41706;BME280;27385;51.096;17.190;2023-03-20T05:29:28;100289.91;;;8.58;89.37
41706;BME280;27385;51.096;17.190;2023-03-20T05:31:59;100292.45;;;8.58;89.63
41706;BME280;27385;51.096;17.190;2023-03-20T05:34:30;100287.48;;;8.59;89.45
41706;BME280;27385;51.096;17.190;2023-03-20T05:37:01;100287.73;;;8.61;89.49
41706;BME280;27385;51.096;17.190;2023-03-20T05:39:32;100290.61;;;8.62;89.46
41706;BME280;27385;51.096;17.190;2023-03-20T05:42:02;100294.52;;;8.63;89.52
41706;BME280;27385;51.096;17.190;2023-03-20T05:44:35;100300.16;;;8.64;89.73
41706;BME280;27385;51.096;17.190;2023-03-20T05:47:06;100304.63;;;8.64;89.95
41706;BME280;27385;51.096;17.190;2023-03-20T05:49:37;100303.08;;;8.62;90.29
41706;BME280;27385;51.096;17.190;2023-03-20T05:52:08;100308.23;;;8.62;90.44
41706;BME280;27385;51.096;17.190;2023-03-20T05:54:39;100308.75;;;8.63;90.46
41706;BME280;27385;51.096;17.190;2023-03-20T05:57:10;100304.95;;;8.65;90.49
41706;BME280;27385;51.096;17.190;2023-03-20T05:59:41;100306.88;;;8.66;90.58
41706;BME280;27385;51.096;17.190;2023-03-20T06:02:12;100309.14;;;8.69;90.66
41706;BME280;27385;51.096;17.190;2023-03-20T06:04:44;100309.83;;;8.72;90.81
41706;BME280;27385;51.096;17.190;2023-03-20T06:07:15;100313.27;;;8.75;90.91
41706;BME280;27385;51.096;17.190;2023-03-20T06:09:47;100308.99;;;8.77;91.22
41706;BME280;27385;51.096;17.190;2023-03-20T06:12:19;100306.84;;;8.80;91.33
41706;BME280;27385;51.096;17.190;2023-03-20T06:14:50;100308.45;;;8.83;91.46
41706;BME280;27385;51.096;17.190;2023-03-20T06:17:21;100311.98;;;8.86;91.82
41706;BME280;27385;51.096;17.190;2023-03-20T06:19:52;100312.05;;;8.89;92.23
41706;BME280;27385;51.096;17.190;2023-03-20T06:22:23;100315.27;;;8.94;92.20
41706;BME280;27385;51.096;17.190;2023-03-20T06:24:54;100313.83;;;8.99;92.35
41706;BME280;27385;51.096;17.190;2023-03-20T06:27:25;100316.30;;;9.05;92.52
41706;BME280;27385;51.096;17.190;2023-03-20T06:29:56;100317.16;;;9.10;92.55
41706;BME280;27385;51.096;17.190;2023-03-20T06:32:27;100321.77;;;9.16;92.99
41706;BME280;27385;51.096;17.190;2023-03-20T06:34:58;100325.10;;;9.21;92.84
41706;BME280;27385;51.096;17.190;2023-03-20T06:37:29;100327.70;;;9.25;92.89
41706;BME280;27385;51.096;17.190;2023-03-20T06:40:00;100328.51;;;9.28;93.13
41706;BME280;27385;51.096;17.190;2023-03-20T06:42:32;100330.20;;;9.31;93.18
41706;BME280;27385;51.096;17.190;2023-03-20T06:45:03;100329.17;;;9.34;93.16
41706;BME280;27385;51.096;17.190;2023-03-20T06:47:35;100331.52;;;9.37;93.11
41706;BME280;27385;51.096;17.190;2023-03-20T06:50:08;100337.79;;;9.41;93.58
41706;BME280;27385;51.096;17.190;2023-03-20T06:52:40;100334.32;;;9.43;93.51
41706;BME280;27385;51.096;17.190;2023-03-20T06:55:12;100335.02;;;9.47;93.48
41706;BME280;27385;51.096;17.190;2023-03-20T06:57:46;100336.36;;;9.51;93.69
41706;BME280;27385;51.096;17.190;2023-03-20T07:00:19;100336.91;;;9.54;93.64
41706;BME280;27385;51.096;17.190;2023-03-20T07:02:51;100332.84;;;9.57;94.03
41706;BME280;27385;51.096;17.190;2023-03-20T07:05:23;100333.67;;;9.60;93.96
41706;BME280;27385;51.096;17.190;2023-03-20T07:07:53;100331.92;;;9.64;93.92
41706;BME280;27385;51.096;17.190;2023-03-20T07:10:24;100336.49;;;9.66;93.99
41706;BME280;27385;51.096;17.190;2023-03-20T07:12:55;100335.25;;;9.69;94.03
41706;BME280;27385;51.096;17.190;2023-03-20T07:15:27;100336.73;;;9.72;93.83
41706;BME280;27385;51.096;17.190;2023-03-20T07:17:58;100338.72;;;9.75;93.83
41706;BME280;27385;51.096;17.190;2023-03-20T07:20:29;100338.35;;;9.78;93.97
41706;BME280;27385;51.096;17.190;2023-03-20T07:23:01;100339.23;;;9.81;93.97
41706;BME280;27385;51.096;17.190;2023-03-20T07:25:33;100340.88;;;9.85;93.93
41706;BME280;27385;51.096;17.190;2023-03-20T07:28:04;100339.73;;;9.87;93.96
41706;BME280;27385;51.096;17.190;2023-03-20T07:30:35;100343.71;;;9.90;93.97
41706;BME280;27385;51.096;17.190;2023-03-20T07:33:07;100346.30;;;9.93;93.97
41706;BME280;27385;51.096;17.190;2023-03-20T07:35:38;100350.06;;;9.96;93.97
41706;BME280;27385;51.096;17.190;2023-03-20T07:38:09;100348.20;;;9.98;93.84
41706;BME280;27385;51.096;17.190;2023-03-20T07:40:40;100352.23;;;10.00;93.98
41706;BME280;27385;51.096;17.190;2023-03-20T07:43:11;100347.59;;;10.01;93.79
41706;BME280;27385;51.096;17.190;2023-03-20T07:45:43;100348.78;;;10.01;93.87
41706;BME280;27385;51.096;17.190;2023-03-20T07:48:14;100351.86;;;10.01;93.73
41706;BME280;27385;51.096;17.190;2023-03-20T07:50:46;100351.33;;;10.02;93.90
41706;BME280;27385;51.096;17.190;2023-03-20T07:53:17;100353.84;;;10.03;93.89
41706;BME280;27385;51.096;17.190;2023-03-20T07:55:48;100355.35;;;10.05;94.10
41706;BME280;27385;51.096;17.190;2023-03-20T07:58:19;100356.78;;;10.05;94.05
41706;BME280;27385;51.096;17.190;2023-03-20T08:00:51;100356.48;;;10.06;94.07
41706;BME280;27385;51.096;17.190;2023-03-20T08:03:22;100359.77;;;10.07;94.14
41706;BME280;27385;51.096;17.190;2023-03-20T08:05:54;100354.77;;;10.08;94.27
41706;BME280;27385;51.096;17.190;2023-03-20T08:08:25;100354.71;;;10.10;94.19
41706;BME280;27385;51.096;17.190;2023-03-20T08:10:56;100354.23;;;10.12;94.07
41706;BME280;27385;51.096;17.190;2023-03-20T08:13:27;100358.35;;;10.15;94.27
41706;BME280;27385;51.096;17.190;2023-03-20T08:15:59;100360.52;;;10.17;94.20
41706;BME280;27385;51.096;17.190;2023-03-20T08:18:30;100363.95;;;10.18;94.27
41706;BME280;27385;51.096;17.190;2023-03-20T08:21:02;100363.48;;;10.20;94.20
41706;BME280;27385;51.096;17.190;2023-03-20T08:23:33;100360.60;;;10.22;94.19
41706;BME280;27385;51.096;17.190;2023-03-20T08:26:05;100364.30;;;10.24;94.28
41706;BME280;27385;51.096;17.190;2023-03-20T08:28:36;100365.34;;;10.26;94.28
41706;BME280;27385;51.096;17.190;2023-03-20T08:31:09;100369.39;;;10.28;94.28
41706;BME280;27385;51.096;17.190;2023-03-20T08:33:40;100367.64;;;10.29;94.33
41706;BME280;27385;51.096;17.190;2023-03-20T08:36:14;100370.48;;;10.31;94.35
41706;BME280;27385;51.096;17.190;2023-03-20T08:38:49;100372.13;;;10.34;94.40
41706;BME280;27385;51.096;17.190;2023-03-20T08:41:21;100375.11;;;10.36;94.64
41706;BME280;27385;51.096;17.190;2023-03-20T08:43:52;100374.29;;;10.38;94.60
41706;BME280;27385;51.096;17.190;2023-03-20T08:46:23;100376.61;;;10.39;94.63
41706;BME280;27385;51.096;17.190;2023-03-20T08:48:54;100378.36;;;10.41;94.52
41706;BME280;27385;51.096;17.190;2023-03-20T08:51:27;100375.76;;;10.42;94.42
41706;BME280;27385;51.096;17.190;2023-03-20T08:53:58;100382.19;;;10.44;94.36
41706;BME280;27385;51.096;17.190;2023-03-20T08:56:30;100382.17;;;10.46;94.28
41706;BME280;27385;51.096;17.190;2023-03-20T08:59:01;100384.71;;;10.48;94.31
41706;BME280;27385;51.096;17.190;2023-03-20T09:01:32;100385.73;;;10.48;94.05
41706;BME280;27385;51.096;17.190;2023-03-20T09:04:03;100387.12;;;10.47;94.00
41706;BME280;27385;51.096;17.190;2023-03-20T09:06:37;100388.69;;;10.47;93.71
41706;BME280;27385;51.096;17.190;2023-03-20T09:09:08;100387.98;;;10.46;93.36
41706;BME280;27385;51.096;17.190;2023-03-20T09:11:40;100390.04;;;10.45;93.32
41706;BME280;27385;51.096;17.190;2023-03-20T09:14:11;100388.94;;;10.45;93.13
41706;BME280;27385;51.096;17.190;2023-03-20T09:16:43;100391.82;;;10.45;92.94
41706;BME280;27385;51.096;17.190;2023-03-20T09:19:16;100391.71;;;10.43;92.86
41706;BME280;27385;51.096;17.190;2023-03-20T09:21:48;100389.96;;;10.45;92.73
41706;BME280;27385;51.096;17.190;2023-03-20T09:24:19;100386.20;;;10.47;92.68
41706;BME280;27385;51.096;17.190;2023-03-20T09:26:49;100387.06;;;10.49;92.59
41706;BME280;27385;51.096;17.190;2023-03-20T09:29:21;100384.77;;;10.48;92.12
41706;BME280;27385;51.096;17.190;2023-03-20T09:31:53;100388.27;;;10.49;91.96
41706;BME280;27385;51.096;17.190;2023-03-20T09:34:24;100387.98;;;10.48;91.85
41706;BME280;27385;51.096;17.190;2023-03-20T09:36:55;100389.14;;;10.49;91.75
41706;BME280;27385;51.096;17.190;2023-03-20T09:39:27;100387.12;;;10.49;91.64
41706;BME280;27385;51.096;17.190;2023-03-20T09:42:01;100386.30;;;10.51;91.50
41706;BME280;27385;51.096;17.190;2023-03-20T09:44:46;100379.58;;;10.55;91.71
41706;BME280;27385;51.096;17.190;2023-03-20T09:47:24;100381.50;;;10.63;91.98
41706;BME280;27385;51.096;17.190;2023-03-20T09:50:11;100379.19;;;10.71;92.02
41706;BME280;27385;51.096;17.190;2023-03-20T09:52:47;100381.49;;;10.82;92.06
41706;BME280;27385;51.096;17.190;2023-03-20T09:55:29;100385.66;;;10.92;91.74
41706;BME280;27385;51.096;17.190;2023-03-20T09:58:08;100385.30;;;11.00;91.33
41706;BME280;27385;51.096;17.190;2023-03-20T10:00:42;100382.22;;;11.06;91.12
41706;BME280;27385;51.096;17.190;2023-03-20T10:03:19;100386.77;;;11.12;90.99
41706;BME280;27385;51.096;17.190;2023-03-20T10:05:55;100384.23;;;11.17;90.72
41706;BME280;27385;51.096;17.190;2023-03-20T10:08:29;100382.36;;;11.21;90.66
41706;BME280;27385;51.096;17.190;2023-03-20T10:14:35;100377.48;;;11.32;90.47
41706;BME280;27385;51.096;17.190;2023-03-20T10:17:34;100378.20;;;11.33;90.26
41706;BME280;27385;51.096;17.190;2023-03-20T10:20:16;100375.69;;;11.37;90.18
41706;BME280;27385;51.096;17.190;2023-03-20T10:22:54;100375.56;;;11.42;90.04
41706;BME280;27385;51.096;17.190;2023-03-20T10:25:29;100375.48;;;11.48;89.99
41706;BME280;27385;51.096;17.190;2023-03-20T10:28:03;100375.68;;;11.54;89.93
41706;BME280;27385;51.096;17.190;2023-03-20T10:30:48;100366.70;;;11.61;89.72
41706;BME280;27385;51.096;17.190;2023-03-20T10:33:36;100364.62;;;11.68;89.55
41706;BME280;27385;51.096;17.190;2023-03-20T10:36:21;100358.17;;;11.75;89.45
41706;BME280;27385;51.096;17.190;2023-03-20T10:38:59;100357.67;;;11.83;89.14
41706;BME280;27385;51.096;17.190;2023-03-20T10:41:37;100359.51;;;11.88;89.08
41706;BME280;27385;51.096;17.190;2023-03-20T10:44:19;100354.63;;;11.95;88.74
41706;BME280;27385;51.096;17.190;2023-03-20T10:46:54;100345.35;;;12.01;88.52
41706;BME280;27385;51.096;17.190;2023-03-20T10:49:32;100345.93;;;12.10;88.59
41706;BME280;27385;51.096;17.190;2023-03-20T10:52:11;100342.54;;;12.18;88.06
41706;BME280;27385;51.096;17.190;2023-03-20T10:54:46;100339.30;;;12.23;88.05
41706;BME280;27385;51.096;17.190;2023-03-20T10:57:23;100337.36;;;12.26;87.62
41706;BME280;27385;51.096;17.190;2023-03-20T10:59:56;100341.89;;;12.31;87.71
41706;BME280;27385;51.096;17.190;2023-03-20T11:02:30;100336.38;;;12.33;87.28
41706;BME280;27385;51.096;17.190;2023-03-20T11:05:04;100337.23;;;12.36;87.31
41706;BME280;27385;51.096;17.190;2023-03-20T11:07:40;100337.37;;;12.42;86.96
41706;BME280;27385;51.096;17.190;2023-03-20T11:10:14;100340.10;;;12.49;86.95
41706;BME280;27385;51.096;17.190;2023-03-20T11:12:49;100338.20;;;12.55;86.91
41706;BME280;27385;51.096;17.190;2023-03-20T11:15:25;100338.73;;;12.61;86.82
41706;BME280;27385;51.096;17.190;2023-03-20T11:18:00;100332.80;;;12.68;86.78
41706;BME280;27385;51.096;17.190;2023-03-20T11:20:36;100333.63;;;12.77;86.56
41706;BME280;27385;51.096;17.190;2023-03-20T11:23:13;100327.46;;;12.91;86.11
41706;BME280;27385;51.096;17.190;2023-03-20T11:25:52;100327.71;;;13.04;86.00
41706;BME280;27385;51.096;17.190;2023-03-20T11:28:31;100327.67;;;13.14;85.60
41706;BME280;27385;51.096;17.190;2023-03-20T11:31:05;100323.92;;;13.25;85.44
41706;BME280;27385;51.096;17.190;2023-03-20T11:33:41;100321.94;;;13.39;84.84
41706;BME280;27385;51.096;17.190;2023-03-20T11:36:21;100325.42;;;13.52;84.91
41706;BME280;27385;51.096;17.190;2023-03-20T11:38:57;100325.60;;;13.65;84.37
41706;BME280;27385;51.096;17.190;2023-03-20T11:41:29;100324.05;;;13.77;83.41
41706;BME280;27385;51.096;17.190;2023-03-20T11:44:00;100319.91;;;13.83;82.74
41706;BME280;27385;51.096;17.190;2023-03-20T11:46:31;100319.88;;;13.86;82.39
41706;BME280;27385;51.096;17.190;2023-03-20T11:49:19;100321.84;;;13.89;81.89
41706;BME280;27385;51.096;17.190;2023-03-20T11:51:52;100318.95;;;13.93;81.58
41706;BME280;27385;51.096;17.190;2023-03-20T11:54:22;100319.73;;;13.96;81.76
41706;BME280;27385;51.096;17.190;2023-03-20T11:56:56;100315.55;;;14.02;81.47
41706;BME280;27385;51.096;17.190;2023-03-20T11:59:31;100312.36;;;14.06;81.44
41706;BME280;27385;51.096;17.190;2023-03-20T12:02:11;100305.14;;;14.11;81.04
41706;BME280;27385;51.096;17.190;2023-03-20T12:04:48;100301.60;;;14.18;80.92
41706;BME280;27385;51.096;17.190;2023-03-20T12:07:21;100300.27;;;14.25;80.77
41706;BME280;27385;51.096;17.190;2023-03-20T12:09:57;100303.13;;;14.32;80.18
41706;BME280;27385;51.096;17.190;2023-03-20T12:12:36;100300.70;;;14.35;79.23
41706;BME280;27385;51.096;17.190;2023-03-20T12:15:17;100296.58;;;14.37;78.99
41706;BME280;27385;51.096;17.190;2023-03-20T12:17:55;100296.55;;;14.41;78.89
41706;BME280;27385;51.096;17.190;2023-03-20T12:20:35;100296.34;;;14.45;78.11
41706;BME280;27385;51.096;17.190;2023-03-20T12:23:12;100297.94;;;14.45;77.74
41706;BME280;27385;51.096;17.190;2023-03-20T12:25:50;100293.08;;;14.45;77.46
41706;BME280;27385;51.096;17.190;2023-03-20T12:28:28;100292.06;;;14.46;77.64
41706;BME280;27385;51.096;17.190;2023-03-20T12:31:12;100284.09;;;14.45;77.29
41706;BME280;27385;51.096;17.190;2023-03-20T12:33:51;100282.10;;;14.44;77.16
41706;BME280;27385;51.096;17.190;2023-03-20T12:36:27;100283.63;;;14.46;76.34
41706;BME280;27385;51.096;17.190;2023-03-20T12:39:00;100275.62;;;14.47;77.04
41706;BME280;27385;51.096;17.190;2023-03-20T12:41:38;100277.38;;;14.54;76.54
41706;BME280;27385;51.096;17.190;2023-03-20T12:44:31;100276.17;;;14.61;76.18
41706;BME280;27385;51.096;17.190;2023-03-20T12:47:17;100272.62;;;14.65;75.92
41706;BME280;27385;51.096;17.190;2023-03-20T12:49:58;100267.83;;;14.70;76.01
41706;BME280;27385;51.096;17.190;2023-03-20T12:52:37;100261.91;;;14.77;75.52
41706;BME280;27385;51.096;17.190;2023-03-20T12:55:21;100255.39;;;14.85;75.64
41706;BME280;27385;51.096;17.190;2023-03-20T12:58:05;100255.86;;;14.92;75.27
41706;BME280;27385;51.096;17.190;2023-03-20T13:00:44;100252.86;;;14.97;74.41
41706;BME280;27385;51.096;17.190;2023-03-20T13:03:31;100249.80;;;14.98;73.84
41706;BME280;27385;51.096;17.190;2023-03-20T13:06:11;100248.92;;;14.96;73.90
41706;BME280;27385;51.096;17.190;2023-03-20T13:09:02;100249.08;;;14.94;75.35
41706;BME280;27385;51.096;17.190;2023-03-20T13:11:42;100250.02;;;14.84;75.75
41706;BME280;27385;51.096;17.190;2023-03-20T13:14:19;100248.77;;;14.73;75.33
41706;BME280;27385;51.096;17.190;2023-03-20T13:17:00;100238.85;;;14.64;76.10
41706;BME280;27385;51.096;17.190;2023-03-20T13:19:41;100239.66;;;14.63;76.65
41706;BME280;27385;51.096;17.190;2023-03-20T13:22:18;100241.86;;;14.64;76.82
41706;BME280;27385;51.096;17.190;2023-03-20T13:24:58;100238.69;;;14.62;76.39
41706;BME280;27385;51.096;17.190;2023-03-20T13:27:37;100232.70;;;14.60;76.45
41706;BME280;27385;51.096;17.190;2023-03-20T13:30:16;100235.22;;;14.60;76.46
41706;BME280;27385;51.096;17.190;2023-03-20T13:33:08;100241.73;;;14.57;76.22
41706;BME280;27385;51.096;17.190;2023-03-20T13:35:51;100244.08;;;14.51;76.55